createdAt,value
2023-03-02T00:04:10.274Z,98908.94
2023-03-02T00:09:13.013Z,98908.66
2023-03-02T00:14:17.291Z,98902.22
2023-03-02T00:19:20.527Z,98900.31
2023-03-02T00:24:23.534Z,98896.75
2023-03-02T00:29:28.292Z,98899.47
2023-03-02T00:34:32.302Z,98894.31
2023-03-02T00:39:35.356Z,98897.84
2023-03-02T00:44:39.994Z,98895.28
2023-03-02T00:49:45.459Z,98885.81
2023-03-02T00:54:48.282Z,98887.16
2023-03-02T00:59:53.536Z,98890.13
2023-03-02T01:05:14.835Z,98889.53
2023-03-02T01:10:17.993Z,98892.53
2023-03-02T01:15:22.288Z,98890.31
2023-03-02T01:20:25.065Z,98886.78
2023-03-02T01:25:28.433Z,98887.16
2023-03-02T01:30:32.534Z,98887.22
2023-03-02T01:35:35.453Z,98880.44
2023-03-02T01:40:38.385Z,98876.41
2023-03-02T01:45:53.389Z,98878.47
2023-03-02T01:51:08.335Z,98871.78
2023-03-02T01:56:11.862Z,98859.69
2023-03-02T02:01:17.379Z,98863.50
2023-03-02T02:06:24.853Z,98858.75
2023-03-02T02:11:28.412Z,98857.22
2023-03-02T02:16:34.565Z,98848.00
2023-03-02T02:21:37.787Z,98858.69
2023-03-02T02:26:46.344Z,98851.75
2023-03-02T02:31:54.467Z,98842.41
2023-03-02T02:37:04.951Z,98830.50
2023-03-02T02:42:16.005Z,98829.31
2023-03-02T02:47:22.077Z,98819.06
2023-03-02T02:52:27.125Z,98818.28
2023-03-02T02:57:32.123Z,98820.25
2023-03-02T03:02:40.932Z,98826.56
2023-03-02T03:07:44.110Z,98824.97
2023-03-02T03:12:48.682Z,98820.69
2023-03-02T03:17:56.224Z,98813.03
2023-03-02T03:23:00.790Z,98822.69
2023-03-02T03:28:07.937Z,98813.16
2023-03-02T03:33:11.983Z,98812.56
2023-03-02T03:38:15.790Z,98800.78
2023-03-02T03:43:20.767Z,98805.22
2023-03-02T03:48:28.279Z,98801.31
2023-03-02T03:53:31.260Z,98800.06
2023-03-02T03:58:35.884Z,98808.81
2023-03-02T04:03:39.509Z,98801.28
2023-03-02T04:08:42.533Z,98808.63
2023-03-02T04:13:48.881Z,98812.06
2023-03-02T04:18:52.254Z,98819.09
2023-03-02T04:23:55.615Z,98814.03
2023-03-02T04:29:00.793Z,98817.59
2023-03-02T04:34:05.037Z,98817.69
2023-03-02T04:39:09.456Z,98816.78
2023-03-02T04:44:14.696Z,98816.00
2023-03-02T04:49:19.843Z,98815.28
2023-03-02T04:54:25.349Z,98819.81
2023-03-02T04:59:30.058Z,98808.59
2023-03-02T05:04:32.962Z,98811.47
2023-03-02T05:09:35.958Z,98822.03
2023-03-02T05:14:40.870Z,98821.22
2023-03-02T05:19:43.734Z,98818.72
2023-03-02T05:24:46.616Z,98812.72
2023-03-02T05:29:50.809Z,98813.84
2023-03-02T05:34:53.677Z,98817.41
2023-03-02T05:39:56.542Z,98823.53
2023-03-02T05:45:01.017Z,98823.78
2023-03-02T05:50:04.894Z,98821.13
2023-03-02T05:55:10.081Z,98825.41
2023-03-02T06:00:16.137Z,98828.00
2023-03-02T06:05:22.073Z,98828.94
2023-03-02T06:10:25.904Z,98829.75
2023-03-02T06:15:30.104Z,98828.72
2023-03-02T06:20:32.872Z,98835.69
2023-03-02T06:25:42.020Z,98839.69
2023-03-02T06:30:47.026Z,98841.16
2023-03-02T06:35:50.557Z,98839.91
2023-03-02T06:40:56.076Z,98839.28
2023-03-02T06:46:02.341Z,98846.66
2023-03-02T06:51:06.146Z,98845.06
2023-03-02T06:56:10.066Z,98836.38
2023-03-02T07:01:14.461Z,98840.78
2023-03-02T07:06:18.401Z,98840.31
2023-03-02T07:11:24.229Z,98850.91
2023-03-02T07:16:29.057Z,98852.56
2023-03-02T07:21:32.217Z,98844.91
2023-03-02T07:26:37.457Z,98851.94
2023-03-02T07:31:44.275Z,98841.44
2023-03-02T07:36:49.860Z,98840.50
2023-03-02T07:41:53.095Z,98832.75
2023-03-02T07:46:59.249Z,98847.59
2023-03-02T07:52:02.436Z,98843.00
2023-03-02T07:57:05.344Z,98841.50
2023-03-02T08:02:15.419Z,98841.19
2023-03-02T08:07:18.295Z,98832.78
2023-03-02T08:12:22.198Z,98842.16
2023-03-02T08:17:27.149Z,98841.19
2023-03-02T08:22:31.383Z,98850.28
2023-03-02T08:27:34.672Z,98841.81
2023-03-02T08:32:39.199Z,98839.84
2023-03-02T08:37:42.126Z,98841.25
2023-03-02T08:42:44.853Z,98829.06
2023-03-02T08:47:49.085Z,98814.28
2023-03-02T08:52:52.820Z,98810.00
2023-03-02T08:57:55.732Z,98803.94
2023-03-02T09:03:00.110Z,98801.63
2023-03-02T09:08:03.195Z,98793.81
2023-03-02T09:13:08.536Z,98794.88
2023-03-02T09:18:12.952Z,98798.81
2023-03-02T09:23:15.845Z,98801.53
2023-03-02T09:28:19.017Z,98803.22
2023-03-02T09:33:23.202Z,98808.09
2023-03-02T09:38:27.478Z,98799.19
2023-03-02T09:43:44.623Z,98807.13
2023-03-02T09:48:58.717Z,98805.03
2023-03-02T09:54:08.758Z,98797.75
2023-03-02T09:59:22.371Z,98800.19
2023-03-02T10:04:29.297Z,98804.81
2023-03-02T10:09:32.247Z,98801.41
2023-03-02T10:14:42.034Z,98794.38
2023-03-02T10:19:52.298Z,98790.53
2023-03-02T10:25:08.015Z,98792.19
2023-03-02T10:30:22.019Z,98785.97
2023-03-02T10:35:31.306Z,98786.47
2023-03-02T10:41:03.145Z,98785.94
2023-03-02T10:46:08.770Z,98783.41
2023-03-02T10:51:23.059Z,98785.53
2023-03-02T10:56:26.041Z,98783.22
2023-03-02T11:01:28.917Z,98773.47
2023-03-02T11:06:33.573Z,98771.53
2023-03-02T11:11:37.732Z,98764.59
2023-03-02T11:16:40.879Z,98756.38
2023-03-02T11:21:51.120Z,98757.13
2023-03-02T11:26:58.216Z,98745.28
2023-03-02T11:32:10.184Z,98750.31
2023-03-02T11:37:19.562Z,98741.88
2023-03-02T11:42:26.340Z,98740.47
2023-03-02T11:47:33.433Z,98734.03
2023-03-02T11:52:42.847Z,98725.47
2023-03-02T11:57:49.861Z,98721.31
2023-03-02T12:03:04.947Z,98716.63
2023-03-02T12:08:25.283Z,98710.84
2023-03-02T12:13:34.231Z,98710.47
2023-03-02T12:18:47.528Z,98708.91
2023-03-02T12:24:04.039Z,98712.66
2023-03-02T12:29:23.552Z,98710.03
2023-03-02T12:34:38.599Z,98711.75
2023-03-02T12:40:13.321Z,98693.47
2023-03-02T12:45:31.337Z,98682.63
2023-03-02T12:50:39.535Z,98676.66
2023-03-02T12:55:45.697Z,98673.25
2023-03-02T13:00:53.055Z,98666.53
2023-03-02T13:06:02.833Z,98664.34
2023-03-02T13:11:07.508Z,98652.41
2023-03-02T13:16:22.598Z,98657.53
2023-03-02T13:21:30.866Z,98638.97
2023-03-02T13:26:39.819Z,98631.31
2023-03-02T13:31:44.425Z,98629.38
2023-03-02T13:36:47.407Z,98629.13
2023-03-02T13:41:56.950Z,98620.09
2023-03-02T13:47:01.498Z,98609.16
2023-03-02T13:52:09.184Z,98614.09
2023-03-02T13:57:17.856Z,98614.78
2023-03-02T14:02:25.439Z,98614.63
2023-03-02T14:07:28.305Z,98617.72
2023-03-02T14:12:33.942Z,98614.50
2023-03-02T14:17:38.928Z,98609.78
2023-03-02T14:22:42.429Z,98604.94
2023-03-02T14:27:48.059Z,98597.41
2023-03-02T14:32:51.113Z,98595.38
2023-03-02T14:37:56.196Z,98597.47
2023-03-02T14:43:00.801Z,98593.81
2023-03-02T14:48:03.746Z,98590.06
2023-03-02T14:53:17.476Z,98590.59
2023-03-02T14:58:32.436Z,98590.66
2023-03-02T15:03:35.335Z,98597.47
2023-03-02T15:08:38.431Z,98590.44
2023-03-02T15:13:45.366Z,98604.75
2023-03-02T15:18:49.520Z,98603.38
2023-03-02T15:23:52.520Z,98600.50
2023-03-02T15:28:58.118Z,98610.50
2023-03-02T15:34:00.997Z,98609.44
2023-03-02T15:39:04.428Z,98614.22
2023-03-02T15:44:09.329Z,98612.63
2023-03-02T15:49:12.211Z,98613.06
2023-03-02T15:54:15.020Z,98619.03
2023-03-02T15:59:19.631Z,98621.50
2023-03-02T16:04:26.133Z,98621.63
2023-03-02T16:09:30.942Z,98623.78
2023-03-02T16:14:36.155Z,98629.38
2023-03-02T16:19:42.457Z,98632.53
2023-03-02T16:24:45.477Z,98635.13
2023-03-02T16:29:49.680Z,98635.25
2023-03-02T16:34:55.246Z,98643.09
2023-03-02T16:39:58.225Z,98632.81
2023-03-02T16:45:02.431Z,98638.34
2023-03-02T16:50:07.090Z,98639.53
2023-03-02T16:55:16.769Z,98646.97
2023-03-02T17:00:22.732Z,98647.53
2023-03-02T17:05:27.030Z,98653.59
2023-03-02T17:10:30.384Z,98660.47
2023-03-02T17:15:36.472Z,98658.44
2023-03-02T17:20:39.801Z,98670.59
2023-03-02T17:25:42.533Z,98685.38
2023-03-02T17:30:46.956Z,98686.00
2023-03-02T17:35:50.160Z,98693.25
2023-03-02T17:40:53.606Z,98699.53
2023-03-02T17:45:57.931Z,98700.56
2023-03-02T17:51:01.344Z,98710.69
2023-03-02T17:56:04.251Z,98713.97
2023-03-02T18:48:02.347Z,98761.91
2023-03-02T18:53:05.116Z,98756.28
2023-03-02T18:58:10.836Z,98765.53
2023-03-02T19:03:16.005Z,98763.78
2023-03-02T19:08:20.618Z,98762.69
2023-03-02T19:13:24.389Z,98765.03
2023-03-02T19:18:30.941Z,98769.06
2023-03-02T19:23:34.392Z,98774.06
2023-03-02T19:28:38.458Z,98777.84
2023-03-02T19:33:45.125Z,98782.81
2023-03-02T19:38:48.462Z,98791.72
2023-03-02T19:43:52.698Z,98789.31
2023-03-02T19:48:56.962Z,98791.69
2023-03-02T19:54:00.663Z,98800.09
2023-03-02T19:59:03.644Z,98795.38
2023-03-02T20:04:08.055Z,98797.38
2023-03-02T20:09:13.048Z,98795.41
2023-03-02T20:14:31.237Z,98784.88
2023-03-02T20:19:37.151Z,98791.28
2023-03-02T20:24:40.356Z,98799.59
2023-03-02T20:29:44.196Z,98796.97
2023-03-02T20:34:48.620Z,98786.66
2023-03-02T20:39:51.972Z,98794.88
2023-03-02T20:44:56.346Z,98789.94
2023-03-02T20:50:00.877Z,98794.94
2023-03-02T20:55:04.143Z,98792.88
2023-03-02T21:00:11.878Z,98804.38
2023-03-02T21:05:17.130Z,98803.94
2023-03-02T21:10:25.742Z,98799.69
2023-03-02T21:15:29.514Z,98809.16
2023-03-02T21:20:36.711Z,98817.47
2023-03-02T21:25:42.112Z,98823.59
2023-03-02T21:30:45.150Z,98819.72
2023-03-02T21:35:49.295Z,98824.13
2023-03-02T21:40:52.122Z,98817.16
2023-03-02T21:45:55.395Z,98820.13
2023-03-02T21:50:59.892Z,98821.16
2023-03-02T21:56:02.726Z,98820.81
2023-03-02T22:01:05.973Z,98821.88
2023-03-02T22:06:15.825Z,98832.44
2023-03-02T22:11:22.653Z,98832.28
2023-03-02T22:16:28.064Z,98833.16
2023-03-02T22:21:34.682Z,98834.38
2023-03-02T22:26:40.250Z,98834.78
2023-03-02T22:31:47.511Z,98834.03
2023-03-02T22:36:51.767Z,98831.78
2023-03-02T22:41:57.768Z,98831.97
2023-03-02T22:47:01.160Z,98832.50
2023-03-02T22:52:14.113Z,98825.47
2023-03-02T22:57:32.101Z,98829.06
2023-03-02T23:02:38.116Z,98821.50
2023-03-02T23:07:42.341Z,98820.19
2023-03-02T23:12:45.621Z,98822.78
2023-03-02T23:17:48.508Z,98815.28
2023-03-02T23:22:52.632Z,98819.94
2023-03-02T23:27:55.637Z,98812.63
2023-03-02T23:32:58.479Z,98810.19
2023-03-02T23:38:02.866Z,98814.38
2023-03-02T23:43:05.830Z,98823.31
2023-03-02T23:48:08.875Z,98820.16
2023-03-02T23:53:13.464Z,98820.16
2023-03-02T23:58:16.440Z,98823.69
